LDZ weather

Londolozi Airport
Londolozi, Limpopo, South Africa

Public forecast

Using degrees Celsius for public forecast. Weather courtesy of forecast.io.

METAR (pilot weather report)

Closest report is Hoedspruit Air Force Base Airport, 32.5 nm (60.3 km) NW. Retrieved 2019/05/21 01:00 UTC (58 minutes ago):

FAHS 210100Z AUTO 26003KT //// // ////// 16/04 Q1017

TAF (pilot weather forecast)

Forecast is more than 12 hours old.

Closest forecast is Hoedspruit Air Force Base Airport, 32.5 nm (60.3 km) NW. Retrieved 2017/05/23 04:01 UTC (2 years ago):

TAF FAHS 230300Z 2304/2315 VRB02KT CAVOK TX29/2312ZTN12/2304Z